WetterOnline ( http://www.wetteronline.de )

Wetter aktuell Friesoythe

Aktuelles Wetter: Friesoythe-Altenoythe (6m)

6-stündlich | Neueste Meldungen
Ortszeit Temperatur Wetter
Sa, 23.03. 13:00 9.7° C bedeckt
Sa, 23.03. 7:00 6.4° C wolkig
Sa, 23.03. 1:00 6.3° C Nebel
Fr, 22.03. 19:00 14.4° C leicht bewölkt
Fr, 22.03. 13:00 16.2° C wolkenlos
Fr, 22.03. 7:00 7.9° C bedeckt
Fr, 22.03. 1:00 8.8° C bedeckt
Do, 21.03. 19:00 9.8° C bedeckt
Ortszeit Temperatur Wetter
Sa, 23.03. 14:00 9.4° C Sprühregen
Sa, 23.03. 13:50 9.4° C Sprühregen
Sa, 23.03. 13:40 9.4° C Sprühregen
Sa, 23.03. 13:30 9.6° C Sprühregen
Sa, 23.03. 13:20 9.6° C Sprühregen
Sa, 23.03. 13:10 9.7° C bedeckt
Sa, 23.03. 13:00 9.7° C bedeckt
Sa, 23.03. 12:30 9.5° C bedeckt
Sa, 23.03. 12:00 9.4° C bedeckt
Sa, 23.03. 11:30 9.3° C bedeckt
Sa, 23.03. 11:00 8.9° C bedeckt
Ortszeit Relative Feuchte Sichtweite
Sa, 23.03. 13:00 87% 5.0 km
Sa, 23.03. 7:00 93% 3.1 km
Sa, 23.03. 1:00 99% 0.6 km
Fr, 22.03. 19:00 76% 16 km
Fr, 22.03. 13:00 65% 11 km
Fr, 22.03. 7:00 97% 1.7 km
Fr, 22.03. 1:00 92% 5.0 km
Do, 21.03. 19:00 86% 10 km
Ortszeit Relative Feuchte Sichtweite
Sa, 23.03. 14:00 92% 3.3 km
Sa, 23.03. 13:50 92% -
Sa, 23.03. 13:40 91% -
Sa, 23.03. 13:30 89% 4.5 km
Sa, 23.03. 13:20 89% -
Sa, 23.03. 13:10 89% -
Sa, 23.03. 13:00 87% 5.0 km
Sa, 23.03. 12:30 88% 5.0 km
Sa, 23.03. 12:00 89% 4.9 km
Sa, 23.03. 11:30 89% 4.9 km
Sa, 23.03. 11:00 88% 4.7 km
Ortszeit Niederschlagsmenge Niederschlagsart
Sa, 23.03. 13:00 0.0 l/m2 in 6 Std. -
Sa, 23.03. 7:00 0.0 l/m2 in 12 Std. -
Sa, 23.03. 1:00 0.0 l/m2 in 6 Std. -
Fr, 22.03. 19:00 0.0 l/m2 in 12 Std. -
Fr, 22.03. 13:00 0.0 l/m2 in 6 Std. -
Fr, 22.03. 7:00 0.0 l/m2 in 12 Std. -
Fr, 22.03. 1:00 0.0 l/m2 in 6 Std. -
Do, 21.03. 19:00 0.0 l/m2 in 12 Std. -
Ortszeit Niederschlagsmenge Niederschlagsart
Sa, 23.03. 14:00 0.1 l/m2 in 1 Std. Regen
Sa, 23.03. 13:50 keine Meldung -
Sa, 23.03. 13:40 keine Meldung -
Sa, 23.03. 13:30 0.1 l/m2 in 1 Std. -
Sa, 23.03. 13:20 keine Meldung -
Sa, 23.03. 13:10 keine Meldung -
Sa, 23.03. 13:00 0.0 l/m2 in 1 Std. -
Sa, 23.03. 12:30 0.0 l/m2 in 1 Std. -
Sa, 23.03. 12:00 0.0 l/m2 in 1 Std. -
Sa, 23.03. 11:30 0.0 l/m2 in 1 Std. -
Sa, 23.03. 11:00 0.0 l/m2 in 1 Std. -
Ortszeit Stärke Spitze Richtung
km/h Bft. km/h Grad Sektor
Sa, 23.03. 13:00 13 3 20 300° NW
Sa, 23.03. 7:00 11 2 29 250° W
Sa, 23.03. 1:00 20 4 33 310° NW
Fr, 22.03. 19:00 4 1 25 160° S
Fr, 22.03. 13:00 13 3 22 160° S
Fr, 22.03. 7:00 11 2 18 140° SO
Fr, 22.03. 1:00 0 0 18 - -
Do, 21.03. 19:00 13 3 31 320° NW
Ortszeit Stärke Spitze Richtung
km/h Bft. km/h Grad Sektor
Sa, 23.03. 14:00 11 2 20 310° NW
Sa, 23.03. 13:50 11 2 - 310° NW
Sa, 23.03. 13:40 15 3 - 310° NW
Sa, 23.03. 13:30 14 3 18 310° NW
Sa, 23.03. 13:20 14 3 - 310° NW
Sa, 23.03. 13:10 13 3 - 300° NW
Sa, 23.03. 13:00 13 3 20 300° NW
Sa, 23.03. 12:30 13 3 17 280° W
Sa, 23.03. 12:00 11 2 18 270° W
Sa, 23.03. 11:30 13 3 19 270° W
Sa, 23.03. 11:00 14 3 18 270° W
Ortszeit Untergrenze Bedeckung Gattung
total tief tief mittel hoch
Sa, 23.03. 13:00 300 m 8/8 8/8 - - -
Sa, 23.03. 7:00 300 m 5/8 5/8 - - -
Sa, 23.03. 1:00 30 m 8/8 7/8 - - -
Fr, 22.03. 19:00 12000 m 3/8 0/8 - - -
Fr, 22.03. 13:00 - 0/8 0/8 - - -
Fr, 22.03. 7:00 90 m 8/8 8/8 - - -
Fr, 22.03. 1:00 210 m 8/8 8/8 - - -
Do, 21.03. 19:00 360 m 8/8 8/8 - - -
Ortszeit Bedeckungsgrad in Achtel und Wolkenuntergrenze
Sa, 23.03. 14:00 8(300m)
Sa, 23.03. 13:50 8(300m)
Sa, 23.03. 13:40 8(300m)
Sa, 23.03. 13:30 8(270m) 8(360m)
Sa, 23.03. 13:20 8(270m)
Sa, 23.03. 13:10 8(270m)
Sa, 23.03. 13:00 8(300m)
Sa, 23.03. 12:30 8(270m)
Sa, 23.03. 12:00 8(270m)
Sa, 23.03. 11:30 8(270m)
Sa, 23.03. 11:00 5(240m) 8(1170m)
Ortszeit Luftdruck NN (hPa) Tendenz (hPa in 3 Std.)
Sa, 23.03. 13:00 1030 + 1,1
Sa, 23.03. 7:00 1028 + 0,7
Sa, 23.03. 1:00 1027 + 0,8
Fr, 22.03. 19:00 1026 - 1,2
Fr, 22.03. 13:00 1030 - 2,3
Fr, 22.03. 7:00 1033 - 0,1
Fr, 22.03. 1:00 1033 - 0,3
Do, 21.03. 19:00 1034 + 0,4
Ortszeit Luftdruck NN (hPa) Tendenz (hPa in 3 Std.)
Sa, 23.03. 14:00 1030 + 1,2
Sa, 23.03. 13:50 1030 keine Meldung
Sa, 23.03. 13:40 1030 keine Meldung
Sa, 23.03. 13:30 1030 + 1,3
Sa, 23.03. 13:20 1030 keine Meldung
Sa, 23.03. 13:10 1030 keine Meldung
Sa, 23.03. 13:00 1030 + 1,1
Sa, 23.03. 12:30 1030 + 1,0
Sa, 23.03. 12:00 1029 + 1,1
Sa, 23.03. 11:30 1029 + 1,0
Sa, 23.03. 11:00 1029 + 1,0
Ortszeit Schneehöhe (cm)
Sa, 23.03. 13:00 0
Sa, 23.03. 7:00 0
Sa, 23.03. 1:00 0
Fr, 22.03. 19:00 0
Fr, 22.03. 13:00 0
Fr, 22.03. 7:00 0
Fr, 22.03. 1:00 0
Do, 21.03. 19:00 0
Ortszeit Schneehöhe (cm)
Sa, 23.03. 14:00 0
Sa, 23.03. 13:50 0
Sa, 23.03. 13:40 0
Sa, 23.03. 13:30 0
Sa, 23.03. 13:20 0
Sa, 23.03. 13:10 0
Sa, 23.03. 13:00 0
Sa, 23.03. 12:30 0
Sa, 23.03. 12:00 0
Sa, 23.03. 11:30 0
Sa, 23.03. 11:00 0
Link zu dieser Seite / Seite empfehlen

Das Wetter in ...